sensor_id;sensor_type;location;lat;lon;timestamp;temperature;humidity
66726;HTU21D;53638;51.062;5.804;2023-11-21T00:02:21;9.68;118.99
66726;HTU21D;53638;51.062;5.804;2023-11-21T00:04:48;9.67;118.99
66726;HTU21D;53638;51.062;5.804;2023-11-21T00:07:14;9.63;118.99
66726;HTU21D;53638;51.062;5.804;2023-11-21T00:09:41;9.64;118.99
66726;HTU21D;53638;51.062;5.804;2023-11-21T00:12:08;9.63;118.99
66726;HTU21D;53638;51.062;5.804;2023-11-21T00:14:37;9.59;118.99
66726;HTU21D;53638;51.062;5.804;2023-11-21T00:17:04;9.56;118.99
66726;HTU21D;53638;51.062;5.804;2023-11-21T00:19:31;9.57;118.99
66726;HTU21D;53638;51.062;5.804;2023-11-21T00:21:57;9.59;118.99
66726;HTU21D;53638;51.062;5.804;2023-11-21T00:24:24;9.55;118.99
66726;HTU21D;53638;51.062;5.804;2023-11-21T00:26:51;9.56;118.99
66726;HTU21D;53638;51.062;5.804;2023-11-21T00:29:17;9.59;118.99
66726;HTU21D;53638;51.062;5.804;2023-11-21T00:31:44;9.60;118.99
66726;HTU21D;53638;51.062;5.804;2023-11-21T00:34:12;9.67;118.99
66726;HTU21D;53638;51.062;5.804;2023-11-21T00:36:38;9.72;118.99
66726;HTU21D;53638;51.062;5.804;2023-11-21T00:39:04;9.72;118.99
66726;HTU21D;53638;51.062;5.804;2023-11-21T00:41:32;9.75;118.99
66726;HTU21D;53638;51.062;5.804;2023-11-21T00:43:58;9.75;118.99
66726;HTU21D;53638;51.062;5.804;2023-11-21T00:46:25;9.72;118.99
66726;HTU21D;53638;51.062;5.804;2023-11-21T00:48:52;9.72;118.99
66726;HTU21D;53638;51.062;5.804;2023-11-21T00:51:20;9.75;118.99
66726;HTU21D;53638;51.062;5.804;2023-11-21T00:53:47;9.77;118.99
66726;HTU21D;53638;51.062;5.804;2023-11-21T00:56:13;9.84;118.99
66726;HTU21D;53638;51.062;5.804;2023-11-21T00:58:41;9.86;118.99
66726;HTU21D;53638;51.062;5.804;2023-11-21T01:01:14;9.91;118.99
66726;HTU21D;53638;51.062;5.804;2023-11-21T01:03:40;9.95;118.99
66726;HTU21D;53638;51.062;5.804;2023-11-21T01:06:06;9.95;118.99
66726;HTU21D;53638;51.062;5.804;2023-11-21T01:08:33;9.95;118.99
66726;HTU21D;53638;51.062;5.804;2023-11-21T01:10:59;9.96;118.99
66726;HTU21D;53638;51.062;5.804;2023-11-21T01:13:26;9.94;118.99
66726;HTU21D;53638;51.062;5.804;2023-11-21T01:15:53;9.94;118.99
66726;HTU21D;53638;51.062;5.804;2023-11-21T01:18:19;9.94;118.99
66726;HTU21D;53638;51.062;5.804;2023-11-21T01:20:45;9.95;118.99
66726;HTU21D;53638;51.062;5.804;2023-11-21T01:23:13;9.96;118.99
66726;HTU21D;53638;51.062;5.804;2023-11-21T01:25:39;9.99;118.99
66726;HTU21D;53638;51.062;5.804;2023-11-21T01:28:05;10.00;118.99
66726;HTU21D;53638;51.062;5.804;2023-11-21T01:30:31;10.01;118.99
66726;HTU21D;53638;51.062;5.804;2023-11-21T01:32:58;10.01;118.99
66726;HTU21D;53638;51.062;5.804;2023-11-21T01:35:24;10.04;118.99
66726;HTU21D;53638;51.062;5.804;2023-11-21T01:37:52;10.01;118.99
66726;HTU21D;53638;51.062;5.804;2023-11-21T01:40:19;10.00;118.99
66726;HTU21D;53638;51.062;5.804;2023-11-21T01:42:45;10.00;118.99
66726;HTU21D;53638;51.062;5.804;2023-11-21T01:45:12;9.93;118.99
66726;HTU21D;53638;51.062;5.804;2023-11-21T01:47:40;9.84;118.99
66726;HTU21D;53638;51.062;5.804;2023-11-21T01:50:09;9.78;118.99
66726;HTU21D;53638;51.062;5.804;2023-11-21T01:52:39;9.71;118.99
66726;HTU21D;53638;51.062;5.804;2023-11-21T01:55:08;9.67;118.99
66726;HTU21D;53638;51.062;5.804;2023-11-21T01:57:36;9.67;118.99
66726;HTU21D;53638;51.062;5.804;2023-11-21T02:00:05;9.70;118.99
66726;HTU21D;53638;51.062;5.804;2023-11-21T02:02:45;9.72;118.99
66726;HTU21D;53638;51.062;5.804;2023-11-21T02:05:14;9.71;118.99
66726;HTU21D;53638;51.062;5.804;2023-11-21T02:07:41;9.67;118.99
66726;HTU21D;53638;51.062;5.804;2023-11-21T02:10:09;9.67;118.99
66726;HTU21D;53638;51.062;5.804;2023-11-21T02:12:36;9.67;118.99
66726;HTU21D;53638;51.062;5.804;2023-11-21T02:15:03;9.62;118.99
66726;HTU21D;53638;51.062;5.804;2023-11-21T02:17:31;9.65;118.99
66726;HTU21D;53638;51.062;5.804;2023-11-21T02:19:58;9.72;118.99
66726;HTU21D;53638;51.062;5.804;2023-11-21T02:22:30;9.79;118.99
66726;HTU21D;53638;51.062;5.804;2023-11-21T02:24:56;9.85;118.99
66726;HTU21D;53638;51.062;5.804;2023-11-21T02:27:24;9.89;118.99
66726;HTU21D;53638;51.062;5.804;2023-11-21T02:29:50;9.89;118.99
66726;HTU21D;53638;51.062;5.804;2023-11-21T02:32:16;9.89;118.99
66726;HTU21D;53638;51.062;5.804;2023-11-21T02:34:45;9.82;118.99
66726;HTU21D;53638;51.062;5.804;2023-11-21T02:37:11;9.76;118.99
66726;HTU21D;53638;51.062;5.804;2023-11-21T02:39:38;9.69;118.99
66726;HTU21D;53638;51.062;5.804;2023-11-21T02:42:04;9.67;118.99
66726;HTU21D;53638;51.062;5.804;2023-11-21T02:44:30;9.67;118.99
66726;HTU21D;53638;51.062;5.804;2023-11-21T02:46:56;9.66;118.99
66726;HTU21D;53638;51.062;5.804;2023-11-21T02:49:23;9.70;118.99
66726;HTU21D;53638;51.062;5.804;2023-11-21T02:51:49;9.69;118.99
66726;HTU21D;53638;51.062;5.804;2023-11-21T02:54:14;9.74;118.99
66726;HTU21D;53638;51.062;5.804;2023-11-21T02:56:42;9.75;118.99
66726;HTU21D;53638;51.062;5.804;2023-11-21T02:59:08;9.74;118.99
66726;HTU21D;53638;51.062;5.804;2023-11-21T03:01:34;9.71;118.99
66726;HTU21D;53638;51.062;5.804;2023-11-21T03:04:00;9.74;118.99
66726;HTU21D;53638;51.062;5.804;2023-11-21T03:06:27;9.77;118.99
66726;HTU21D;53638;51.062;5.804;2023-11-21T03:08:53;9.80;118.99
66726;HTU21D;53638;51.062;5.804;2023-11-21T03:11:19;9.80;118.99
66726;HTU21D;53638;51.062;5.804;2023-11-21T03:13:45;9.83;118.99
66726;HTU21D;53638;51.062;5.804;2023-11-21T03:16:12;9.88;118.99
66726;HTU21D;53638;51.062;5.804;2023-11-21T03:18:39;9.90;118.99
66726;HTU21D;53638;51.062;5.804;2023-11-21T03:21:06;9.92;118.99
66726;HTU21D;53638;51.062;5.804;2023-11-21T03:23:35;9.93;118.99
66726;HTU21D;53638;51.062;5.804;2023-11-21T03:26:03;9.93;118.99
66726;HTU21D;53638;51.062;5.804;2023-11-21T03:28:29;9.92;118.99
66726;HTU21D;53638;51.062;5.804;2023-11-21T03:30:57;9.92;118.99
66726;HTU21D;53638;51.062;5.804;2023-11-21T03:33:23;9.92;118.99
66726;HTU21D;53638;51.062;5.804;2023-11-21T03:35:49;9.94;118.99
66726;HTU21D;53638;51.062;5.804;2023-11-21T03:38:15;9.95;118.99
66726;HTU21D;53638;51.062;5.804;2023-11-21T03:40:42;9.96;118.99
66726;HTU21D;53638;51.062;5.804;2023-11-21T03:43:08;10.00;118.99
66726;HTU21D;53638;51.062;5.804;2023-11-21T03:45:34;10.04;118.99
66726;HTU21D;53638;51.062;5.804;2023-11-21T03:47:59;10.08;118.99
66726;HTU21D;53638;51.062;5.804;2023-11-21T03:50:29;10.15;118.99
66726;HTU21D;53638;51.062;5.804;2023-11-21T03:52:55;10.22;118.99
66726;HTU21D;53638;51.062;5.804;2023-11-21T03:55:21;10.23;118.99
66726;HTU21D;53638;51.062;5.804;2023-11-21T03:57:47;10.24;118.99
66726;HTU21D;53638;51.062;5.804;2023-11-21T04:00:13;10.25;118.99
66726;HTU21D;53638;51.062;5.804;2023-11-21T04:02:39;10.27;118.99
66726;HTU21D;53638;51.062;5.804;2023-11-21T04:05:05;10.26;118.99
66726;HTU21D;53638;51.062;5.804;2023-11-21T04:07:32;10.22;118.99
66726;HTU21D;53638;51.062;5.804;2023-11-21T04:09:59;10.20;118.99
66726;HTU21D;53638;51.062;5.804;2023-11-21T04:12:25;10.26;118.99
66726;HTU21D;53638;51.062;5.804;2023-11-21T04:14:51;10.26;118.99
66726;HTU21D;53638;51.062;5.804;2023-11-21T04:17:18;10.29;118.99
66726;HTU21D;53638;51.062;5.804;2023-11-21T04:19:44;10.29;118.99
66726;HTU21D;53638;51.062;5.804;2023-11-21T04:22:11;10.25;118.99
66726;HTU21D;53638;51.062;5.804;2023-11-21T04:24:37;10.21;118.99
66726;HTU21D;53638;51.062;5.804;2023-11-21T04:27:03;10.22;118.99
66726;HTU21D;53638;51.062;5.804;2023-11-21T04:29:29;10.18;118.99
66726;HTU21D;53638;51.062;5.804;2023-11-21T04:31:55;10.16;118.99
66726;HTU21D;53638;51.062;5.804;2023-11-21T04:34:21;10.12;118.99
66726;HTU21D;53638;51.062;5.804;2023-11-21T04:36:47;10.04;118.99
66726;HTU21D;53638;51.062;5.804;2023-11-21T04:39:13;9.97;118.99
66726;HTU21D;53638;51.062;5.804;2023-11-21T04:41:39;9.86;118.99
66726;HTU21D;53638;51.062;5.804;2023-11-21T04:44:06;9.83;118.99
66726;HTU21D;53638;51.062;5.804;2023-11-21T04:46:32;9.78;118.99
66726;HTU21D;53638;51.062;5.804;2023-11-21T04:48:58;9.68;118.99
66726;HTU21D;53638;51.062;5.804;2023-11-21T04:51:24;9.69;118.99
66726;HTU21D;53638;51.062;5.804;2023-11-21T04:53:50;9.79;118.99
66726;HTU21D;53638;51.062;5.804;2023-11-21T04:56:16;9.83;118.99
66726;HTU21D;53638;51.062;5.804;2023-11-21T04:58:42;9.80;118.99
66726;HTU21D;53638;51.062;5.804;2023-11-21T05:01:08;9.83;118.99
66726;HTU21D;53638;51.062;5.804;2023-11-21T05:03:34;9.82;118.99
66726;HTU21D;53638;51.062;5.804;2023-11-21T05:06:00;9.81;118.99
66726;HTU21D;53638;51.062;5.804;2023-11-21T05:08:26;9.76;118.99
66726;HTU21D;53638;51.062;5.804;2023-11-21T05:10:53;9.80;118.99
66726;HTU21D;53638;51.062;5.804;2023-11-21T05:13:20;9.82;118.99
66726;HTU21D;53638;51.062;5.804;2023-11-21T05:15:46;9.89;118.99
66726;HTU21D;53638;51.062;5.804;2023-11-21T05:18:12;9.95;118.99
66726;HTU21D;53638;51.062;5.804;2023-11-21T05:20:39;10.01;118.99
66726;HTU21D;53638;51.062;5.804;2023-11-21T05:23:07;10.07;118.99
66726;HTU21D;53638;51.062;5.804;2023-11-21T05:25:33;10.07;118.99
66726;HTU21D;53638;51.062;5.804;2023-11-21T05:28:00;10.05;118.99
66726;HTU21D;53638;51.062;5.804;2023-11-21T05:30:27;10.01;118.99
66726;HTU21D;53638;51.062;5.804;2023-11-21T05:32:53;10.04;118.99
66726;HTU21D;53638;51.062;5.804;2023-11-21T05:35:19;10.08;118.99
66726;HTU21D;53638;51.062;5.804;2023-11-21T05:37:46;10.07;118.99
66726;HTU21D;53638;51.062;5.804;2023-11-21T05:40:12;10.12;118.99
66726;HTU21D;53638;51.062;5.804;2023-11-21T05:42:39;10.13;118.99
66726;HTU21D;53638;51.062;5.804;2023-11-21T05:45:07;10.19;118.99
66726;HTU21D;53638;51.062;5.804;2023-11-21T05:47:40;10.22;118.99
66726;HTU21D;53638;51.062;5.804;2023-11-21T05:50:07;10.18;118.99
66726;HTU21D;53638;51.062;5.804;2023-11-21T05:52:37;10.21;118.99
66726;HTU21D;53638;51.062;5.804;2023-11-21T05:55:03;10.18;118.99
66726;HTU21D;53638;51.062;5.804;2023-11-21T05:57:34;10.16;118.99
66726;HTU21D;53638;51.062;5.804;2023-11-21T06:00:05;10.19;118.99
66726;HTU21D;53638;51.062;5.804;2023-11-21T06:02:38;10.19;118.99
66726;HTU21D;53638;51.062;5.804;2023-11-21T06:05:06;10.18;118.99
66726;HTU21D;53638;51.062;5.804;2023-11-21T06:07:32;10.15;118.99
66726;HTU21D;53638;51.062;5.804;2023-11-21T06:09:58;10.20;118.99
66726;HTU21D;53638;51.062;5.804;2023-11-21T06:12:24;10.24;118.99
66726;HTU21D;53638;51.062;5.804;2023-11-21T06:14:49;10.26;118.99
66726;HTU21D;53638;51.062;5.804;2023-11-21T06:17:15;10.30;118.99
66726;HTU21D;53638;51.062;5.804;2023-11-21T06:19:41;10.34;118.99
66726;HTU21D;53638;51.062;5.804;2023-11-21T06:22:07;10.38;118.99
66726;HTU21D;53638;51.062;5.804;2023-11-21T06:24:33;10.44;118.99
66726;HTU21D;53638;51.062;5.804;2023-11-21T06:26:59;10.46;118.99
66726;HTU21D;53638;51.062;5.804;2023-11-21T06:29:25;10.49;118.99
66726;HTU21D;53638;51.062;5.804;2023-11-21T06:31:52;10.51;118.99
66726;HTU21D;53638;51.062;5.804;2023-11-21T06:34:20;10.49;118.99
66726;HTU21D;53638;51.062;5.804;2023-11-21T06:36:47;10.49;118.99
66726;HTU21D;53638;51.062;5.804;2023-11-21T06:39:13;10.43;118.99
66726;HTU21D;53638;51.062;5.804;2023-11-21T06:41:40;10.37;118.99
66726;HTU21D;53638;51.062;5.804;2023-11-21T06:44:06;10.33;118.99
66726;HTU21D;53638;51.062;5.804;2023-11-21T06:46:34;10.29;118.99
66726;HTU21D;53638;51.062;5.804;2023-11-21T06:49:00;10.30;118.99
66726;HTU21D;53638;51.062;5.804;2023-11-21T06:51:26;10.29;118.99
66726;HTU21D;53638;51.062;5.804;2023-11-21T06:53:51;10.30;118.99
66726;HTU21D;53638;51.062;5.804;2023-11-21T06:56:18;10.29;118.99
66726;HTU21D;53638;51.062;5.804;2023-11-21T06:58:45;10.29;118.99
66726;HTU21D;53638;51.062;5.804;2023-11-21T07:01:12;10.27;118.99
66726;HTU21D;53638;51.062;5.804;2023-11-21T07:03:38;10.25;118.99
66726;HTU21D;53638;51.062;5.804;2023-11-21T07:06:04;10.26;118.99
66726;HTU21D;53638;51.062;5.804;2023-11-21T07:08:30;10.29;118.99
66726;HTU21D;53638;51.062;5.804;2023-11-21T07:10:55;10.34;118.99
66726;HTU21D;53638;51.062;5.804;2023-11-21T07:13:21;10.36;118.99
66726;HTU21D;53638;51.062;5.804;2023-11-21T07:15:48;10.35;118.99
66726;HTU21D;53638;51.062;5.804;2023-11-21T07:18:14;10.35;118.99
66726;HTU21D;53638;51.062;5.804;2023-11-21T07:20:40;10.37;118.99
66726;HTU21D;53638;51.062;5.804;2023-11-21T07:23:06;10.39;118.99
66726;HTU21D;53638;51.062;5.804;2023-11-21T07:25:32;10.41;118.99
66726;HTU21D;53638;51.062;5.804;2023-11-21T07:27:59;10.43;118.99
66726;HTU21D;53638;51.062;5.804;2023-11-21T07:30:26;10.48;118.99
66726;HTU21D;53638;51.062;5.804;2023-11-21T07:32:53;10.53;118.99
66726;HTU21D;53638;51.062;5.804;2023-11-21T07:35:19;10.56;118.99
66726;HTU21D;53638;51.062;5.804;2023-11-21T07:37:45;10.59;118.99
66726;HTU21D;53638;51.062;5.804;2023-11-21T07:40:12;10.59;118.99
66726;HTU21D;53638;51.062;5.804;2023-11-21T07:42:39;10.63;118.99
66726;HTU21D;53638;51.062;5.804;2023-11-21T07:45:05;10.67;118.99
66726;HTU21D;53638;51.062;5.804;2023-11-21T07:47:32;10.73;118.99
66726;HTU21D;53638;51.062;5.804;2023-11-21T07:50:01;10.77;118.99
66726;HTU21D;53638;51.062;5.804;2023-11-21T07:52:28;10.74;118.99
66726;HTU21D;53638;51.062;5.804;2023-11-21T07:54:54;10.71;118.99
66726;HTU21D;53638;51.062;5.804;2023-11-21T07:57:20;10.66;118.99
66726;HTU21D;53638;51.062;5.804;2023-11-21T07:59:46;10.57;118.99
66726;HTU21D;53638;51.062;5.804;2023-11-21T08:02:12;10.43;118.99
66726;HTU21D;53638;51.062;5.804;2023-11-21T08:04:38;10.38;118.99
66726;HTU21D;53638;51.062;5.804;2023-11-21T08:07:03;10.31;118.99
66726;HTU21D;53638;51.062;5.804;2023-11-21T08:09:29;10.26;118.99
66726;HTU21D;53638;51.062;5.804;2023-11-21T08:11:55;10.20;118.99
66726;HTU21D;53638;51.062;5.804;2023-11-21T08:14:22;10.21;118.99
66726;HTU21D;53638;51.062;5.804;2023-11-21T08:16:51;10.23;118.99
66726;HTU21D;53638;51.062;5.804;2023-11-21T08:19:17;10.28;118.99
66726;HTU21D;53638;51.062;5.804;2023-11-21T08:21:44;10.33;118.99
66726;HTU21D;53638;51.062;5.804;2023-11-21T08:24:11;10.40;118.99
66726;HTU21D;53638;51.062;5.804;2023-11-21T08:26:37;10.41;118.99
66726;HTU21D;53638;51.062;5.804;2023-11-21T08:29:03;10.42;118.99
66726;HTU21D;53638;51.062;5.804;2023-11-21T08:31:29;10.43;118.99
66726;HTU21D;53638;51.062;5.804;2023-11-21T08:33:55;10.41;118.99
66726;HTU21D;53638;51.062;5.804;2023-11-21T08:36:22;10.41;118.99
66726;HTU21D;53638;51.062;5.804;2023-11-21T08:38:50;10.45;118.99
66726;HTU21D;53638;51.062;5.804;2023-11-21T08:41:18;10.48;118.99
66726;HTU21D;53638;51.062;5.804;2023-11-21T08:43:50;10.53;118.99
66726;HTU21D;53638;51.062;5.804;2023-11-21T08:46:16;10.58;118.99
66726;HTU21D;53638;51.062;5.804;2023-11-21T08:48:43;10.69;118.99
66726;HTU21D;53638;51.062;5.804;2023-11-21T08:51:12;10.70;118.99
66726;HTU21D;53638;51.062;5.804;2023-11-21T08:53:39;10.69;118.99
66726;HTU21D;53638;51.062;5.804;2023-11-21T08:56:06;10.72;118.99
66726;HTU21D;53638;51.062;5.804;2023-11-21T08:58:32;10.79;118.99
66726;HTU21D;53638;51.062;5.804;2023-11-21T09:00:58;10.88;118.99
66726;HTU21D;53638;51.062;5.804;2023-11-21T09:03:24;10.98;118.99
66726;HTU21D;53638;51.062;5.804;2023-11-21T09:05:51;11.10;118.99
66726;HTU21D;53638;51.062;5.804;2023-11-21T09:08:16;11.24;118.99
66726;HTU21D;53638;51.062;5.804;2023-11-21T09:10:42;11.32;118.99
66726;HTU21D;53638;51.062;5.804;2023-11-21T09:13:11;11.31;118.99
66726;HTU21D;53638;51.062;5.804;2023-11-21T09:15:38;11.32;118.99
66726;HTU21D;53638;51.062;5.804;2023-11-21T09:18:04;11.34;118.99
66726;HTU21D;53638;51.062;5.804;2023-11-21T09:20:30;11.34;118.99
66726;HTU21D;53638;51.062;5.804;2023-11-21T09:22:56;11.27;118.99
66726;HTU21D;53638;51.062;5.804;2023-11-21T09:25:22;11.23;118.99
66726;HTU21D;53638;51.062;5.804;2023-11-21T09:27:48;11.15;118.99
66726;HTU21D;53638;51.062;5.804;2023-11-21T09:30:14;11.08;118.99
66726;HTU21D;53638;51.062;5.804;2023-11-21T09:32:40;11.13;118.99
66726;HTU21D;53638;51.062;5.804;2023-11-21T09:35:06;11.17;118.99
66726;HTU21D;53638;51.062;5.804;2023-11-21T09:37:34;11.19;118.99
66726;HTU21D;53638;51.062;5.804;2023-11-21T09:39:59;11.20;118.99
66726;HTU21D;53638;51.062;5.804;2023-11-21T09:42:38;11.36;118.99
66726;HTU21D;53638;51.062;5.804;2023-11-21T09:45:15;11.48;118.99
66726;HTU21D;53638;51.062;5.804;2023-11-21T09:47:43;11.54;118.99
66726;HTU21D;53638;51.062;5.804;2023-11-21T09:50:09;11.58;118.99
66726;HTU21D;53638;51.062;5.804;2023-11-21T09:52:54;11.59;118.99
66726;HTU21D;53638;51.062;5.804;2023-11-21T09:55:21;11.58;118.99
66726;HTU21D;53638;51.062;5.804;2023-11-21T09:57:48;11.56;118.99
66726;HTU21D;53638;51.062;5.804;2023-11-21T10:00:15;11.51;118.99
66726;HTU21D;53638;51.062;5.804;2023-11-21T10:02:44;11.45;118.99
66726;HTU21D;53638;51.062;5.804;2023-11-21T10:05:10;11.44;118.99
66726;HTU21D;53638;51.062;5.804;2023-11-21T10:07:39;11.43;118.99
66726;HTU21D;53638;51.062;5.804;2023-11-21T10:10:08;11.41;118.99
66726;HTU21D;53638;51.062;5.804;2023-11-21T10:12:35;11.39;118.99
66726;HTU21D;53638;51.062;5.804;2023-11-21T10:15:03;11.39;118.99
66726;HTU21D;53638;51.062;5.804;2023-11-21T10:17:36;11.36;118.99
66726;HTU21D;53638;51.062;5.804;2023-11-21T10:20:11;11.28;118.99
66726;HTU21D;53638;51.062;5.804;2023-11-21T10:22:40;11.25;118.99
66726;HTU21D;53638;51.062;5.804;2023-11-21T10:25:13;11.32;118.99
66726;HTU21D;53638;51.062;5.804;2023-11-21T10:27:58;11.38;118.99
66726;HTU21D;53638;51.062;5.804;2023-11-21T10:30:30;11.49;118.99
66726;HTU21D;53638;51.062;5.804;2023-11-21T10:32:59;11.59;118.99
66726;HTU21D;53638;51.062;5.804;2023-11-21T10:35:39;11.57;118.99
66726;HTU21D;53638;51.062;5.804;2023-11-21T10:38:05;11.55;118.99
66726;HTU21D;53638;51.062;5.804;2023-11-21T10:40:33;11.49;118.99
66726;HTU21D;53638;51.062;5.804;2023-11-21T10:43:08;11.46;118.99
66726;HTU21D;53638;51.062;5.804;2023-11-21T10:45:36;11.51;118.99
66726;HTU21D;53638;51.062;5.804;2023-11-21T10:48:08;11.47;118.99
66726;HTU21D;53638;51.062;5.804;2023-11-21T10:50:35;11.45;118.99
66726;HTU21D;53638;51.062;5.804;2023-11-21T10:53:02;11.48;118.99
66726;HTU21D;53638;51.062;5.804;2023-11-21T10:55:30;11.59;118.99
66726;HTU21D;53638;51.062;5.804;2023-11-21T10:58:00;11.67;118.99
66726;HTU21D;53638;51.062;5.804;2023-11-21T11:00:28;11.72;118.99
66726;HTU21D;53638;51.062;5.804;2023-11-21T11:02:55;11.74;118.99
66726;HTU21D;53638;51.062;5.804;2023-11-21T11:05:23;11.75;118.99
66726;HTU21D;53638;51.062;5.804;2023-11-21T11:07:58;11.71;118.99
66726;HTU21D;53638;51.062;5.804;2023-11-21T11:10:27;11.82;118.99
66726;HTU21D;53638;51.062;5.804;2023-11-21T11:12:56;11.89;118.99
66726;HTU21D;53638;51.062;5.804;2023-11-21T11:15:23;11.91;118.99
66726;HTU21D;53638;51.062;5.804;2023-11-21T11:17:49;11.89;118.99
66726;HTU21D;53638;51.062;5.804;2023-11-21T11:20:17;11.83;118.99
66726;HTU21D;53638;51.062;5.804;2023-11-21T11:22:55;11.79;118.99
66726;HTU21D;53638;51.062;5.804;2023-11-21T11:28:11;11.84;118.99
66726;HTU21D;53638;51.062;5.804;2023-11-21T11:33:36;11.74;118.99
66726;HTU21D;53638;51.062;5.804;2023-11-21T11:36:08;11.86;118.99
66726;HTU21D;53638;51.062;5.804;2023-11-21T11:38:37;12.00;118.99
66726;HTU21D;53638;51.062;5.804;2023-11-21T11:41:05;12.03;118.99
66726;HTU21D;53638;51.062;5.804;2023-11-21T11:43:32;12.03;118.99
66726;HTU21D;53638;51.062;5.804;2023-11-21T11:46:05;12.03;118.99
66726;HTU21D;53638;51.062;5.804;2023-11-21T11:48:37;12.07;118.99
66726;HTU21D;53638;51.062;5.804;2023-11-21T11:51:13;12.10;118.99
66726;HTU21D;53638;51.062;5.804;2023-11-21T11:53:44;12.17;118.99
66726;HTU21D;53638;51.062;5.804;2023-11-21T11:56:23;12.28;118.99
66726;HTU21D;53638;51.062;5.804;2023-11-21T11:58:54;12.42;118.99
66726;HTU21D;53638;51.062;5.804;2023-11-21T12:01:22;12.46;118.99
66726;HTU21D;53638;51.062;5.804;2023-11-21T12:06:46;12.36;118.99
66726;HTU21D;53638;51.062;5.804;2023-11-21T12:11:46;12.28;118.99
66726;HTU21D;53638;51.062;5.804;2023-11-21T12:14:13;12.22;118.99
66726;HTU21D;53638;51.062;5.804;2023-11-21T12:16:39;12.21;118.99
66726;HTU21D;53638;51.062;5.804;2023-11-21T12:19:05;12.25;118.99
66726;HTU21D;53638;51.062;5.804;2023-11-21T12:21:31;12.28;118.99
66726;HTU21D;53638;51.062;5.804;2023-11-21T12:23:58;12.25;118.99
66726;HTU21D;53638;51.062;5.804;2023-11-21T12:26:24;12.26;118.99
66726;HTU21D;53638;51.062;5.804;2023-11-21T12:28:53;12.26;118.99
66726;HTU21D;53638;51.062;5.804;2023-11-21T12:31:24;12.26;118.99
66726;HTU21D;53638;51.062;5.804;2023-11-21T12:33:50;12.28;118.99
66726;HTU21D;53638;51.062;5.804;2023-11-21T12:36:17;12.34;118.99
66726;HTU21D;53638;51.062;5.804;2023-11-21T12:38:42;12.37;118.99
66726;HTU21D;53638;51.062;5.804;2023-11-21T12:41:09;12.37;118.99
66726;HTU21D;53638;51.062;5.804;2023-11-21T12:43:36;12.44;118.99
66726;HTU21D;53638;51.062;5.804;2023-11-21T12:46:08;12.48;118.99
66726;HTU21D;53638;51.062;5.804;2023-11-21T12:48:41;12.55;118.99
66726;HTU21D;53638;51.062;5.804;2023-11-21T12:51:10;12.58;118.99
66726;HTU21D;53638;51.062;5.804;2023-11-21T12:53:38;12.55;118.99
66726;HTU21D;53638;51.062;5.804;2023-11-21T12:56:11;12.49;118.99
66726;HTU21D;53638;51.062;5.804;2023-11-21T12:58:38;12.41;118.99
66726;HTU21D;53638;51.062;5.804;2023-11-21T13:01:06;12.27;118.99
66726;HTU21D;53638;51.062;5.804;2023-11-21T13:03:39;12.15;118.99
66726;HTU21D;53638;51.062;5.804;2023-11-21T13:06:06;12.07;118.99
66726;HTU21D;53638;51.062;5.804;2023-11-21T13:08:33;11.97;118.99
66726;HTU21D;53638;51.062;5.804;2023-11-21T13:11:00;11.89;118.99
66726;HTU21D;53638;51.062;5.804;2023-11-21T13:13:29;11.84;118.99
66726;HTU21D;53638;51.062;5.804;2023-11-21T13:15:56;11.85;118.99
66726;HTU21D;53638;51.062;5.804;2023-11-21T13:18:24;11.87;118.99
66726;HTU21D;53638;51.062;5.804;2023-11-21T13:20:53;11.79;118.99
66726;HTU21D;53638;51.062;5.804;2023-11-21T13:23:19;11.77;118.99
66726;HTU21D;53638;51.062;5.804;2023-11-21T13:25:45;11.83;118.99
66726;HTU21D;53638;51.062;5.804;2023-11-21T13:28:12;11.79;118.99
66726;HTU21D;53638;51.062;5.804;2023-11-21T13:30:41;11.77;118.99
66726;HTU21D;53638;51.062;5.804;2023-11-21T13:33:08;11.74;118.99
66726;HTU21D;53638;51.062;5.804;2023-11-21T13:35:36;11.79;118.99
66726;HTU21D;53638;51.062;5.804;2023-11-21T13:38:10;11.87;118.99
66726;HTU21D;53638;51.062;5.804;2023-11-21T13:40:40;11.92;118.99
66726;HTU21D;53638;51.062;5.804;2023-11-21T13:43:13;11.92;118.99
66726;HTU21D;53638;51.062;5.804;2023-11-21T13:45:42;11.94;118.99
66726;HTU21D;53638;51.062;5.804;2023-11-21T13:48:10;11.99;118.99
66726;HTU21D;53638;51.062;5.804;2023-11-21T13:50:37;12.01;118.99
66726;HTU21D;53638;51.062;5.804;2023-11-21T13:53:03;11.99;118.99
66726;HTU21D;53638;51.062;5.804;2023-11-21T13:55:36;11.99;118.99
66726;HTU21D;53638;51.062;5.804;2023-11-21T13:58:03;11.93;118.99
66726;HTU21D;53638;51.062;5.804;2023-11-21T14:00:30;11.91;118.99
66726;HTU21D;53638;51.062;5.804;2023-11-21T14:03:12;11.85;118.99
66726;HTU21D;53638;51.062;5.804;2023-11-21T14:05:48;11.81;118.99
66726;HTU21D;53638;51.062;5.804;2023-11-21T14:08:21;11.85;118.99
66726;HTU21D;53638;51.062;5.804;2023-11-21T14:10:49;11.84;118.99
66726;HTU21D;53638;51.062;5.804;2023-11-21T14:13:18;11.85;118.99
66726;HTU21D;53638;51.062;5.804;2023-11-21T14:15:45;11.88;118.99
66726;HTU21D;53638;51.062;5.804;2023-11-21T14:18:12;11.89;118.99
66726;HTU21D;53638;51.062;5.804;2023-11-21T14:20:42;11.87;118.99
66726;HTU21D;53638;51.062;5.804;2023-11-21T14:23:08;11.83;118.99
66726;HTU21D;53638;51.062;5.804;2023-11-21T14:25:34;11.81;118.99
66726;HTU21D;53638;51.062;5.804;2023-11-21T14:28:00;11.79;118.99
66726;HTU21D;53638;51.062;5.804;2023-11-21T14:30:26;11.78;118.99
66726;HTU21D;53638;51.062;5.804;2023-11-21T14:32:53;11.79;118.99
66726;HTU21D;53638;51.062;5.804;2023-11-21T14:35:18;11.82;118.99
66726;HTU21D;53638;51.062;5.804;2023-11-21T14:37:45;11.84;118.99
66726;HTU21D;53638;51.062;5.804;2023-11-21T14:40:12;11.84;118.99
66726;HTU21D;53638;51.062;5.804;2023-11-21T14:42:42;11.85;118.99
66726;HTU21D;53638;51.062;5.804;2023-11-21T14:45:09;11.89;118.99
66726;HTU21D;53638;51.062;5.804;2023-11-21T14:47:37;11.93;118.99
66726;HTU21D;53638;51.062;5.804;2023-11-21T14:50:09;11.94;118.99
66726;HTU21D;53638;51.062;5.804;2023-11-21T14:53:13;11.93;118.99
66726;HTU21D;53638;51.062;5.804;2023-11-21T14:55:40;11.92;118.99
66726;HTU21D;53638;51.062;5.804;2023-11-21T14:58:23;11.86;118.99
66726;HTU21D;53638;51.062;5.804;2023-11-21T15:00:55;11.78;118.99
66726;HTU21D;53638;51.062;5.804;2023-11-21T15:03:25;11.67;118.99
66726;HTU21D;53638;51.062;5.804;2023-11-21T15:06:00;11.59;118.99
66726;HTU21D;53638;51.062;5.804;2023-11-21T15:08:48;11.59;118.99
66726;HTU21D;53638;51.062;5.804;2023-11-21T15:11:15;11.63;118.99
66726;HTU21D;53638;51.062;5.804;2023-11-21T15:13:42;11.67;118.99
66726;HTU21D;53638;51.062;5.804;2023-11-21T15:16:08;11.67;118.99
66726;HTU21D;53638;51.062;5.804;2023-11-21T15:18:38;11.67;118.99
66726;HTU21D;53638;51.062;5.804;2023-11-21T15:21:04;11.67;118.99